ADDS METAR Data INFO
IDs: Format: Raw Decoded Include TAF

Data at: 0856 UTC 16 Jul 2018

METAR for:PADU (Dutch Harbor/Madsen, AK, US)
Text:PADU 160817Z AUTO 21007KT 10SM FEW017 09/06 A3024 RMK AO2
Temperature: 9.0°C ( 48°F)
Dewpoint: 6.0°C ( 43°F) [RH = 81%]
Pressure (altimeter):30.24 inches Hg (1024.1 mb)
Winds:from the SSW (210 degrees) at 8 MPH (7 knots; 3.6 m/s)
Visibility:10 or more sm (16+ km)
Ceiling:at least 12,000 feet AGL
Clouds: few clouds at 1700 feet AGL
QC Flag:automated observation with no human augmentation
Text:PADU 160756Z AUTO 19005KT 10SM BKN019 09/06 A3023 RMK AO2 SLP242 T00890061
Temperature: 8.9°C ( 48°F)
Dewpoint: 6.1°C ( 43°F) [RH = 83%]
Pressure (altimeter):30.23 inches Hg (1023.8 mb) [Sea level pressure: 1024.2 mb]
Winds:from the S (190 degrees) at 6 MPH (5 knots; 2.6 m/s)
Visibility:10 or more sm (16+ km)
Ceiling:1900 feet AGL
Clouds: broken clouds at 1900 feet AGL
QC Flag:automated observation with no human augmentation
Text:PADU 160718Z AUTO VRB04KT 10SM BKN019 09/06 A3023 RMK AO2
Temperature: 9.0°C ( 48°F)
Dewpoint: 6.0°C ( 43°F) [RH = 81%]
Pressure (altimeter):30.23 inches Hg (1023.8 mb)
Winds:variable direction winds at 5 MPH (4 knots; 2.1 m/s)
Visibility:10 or more sm (16+ km)
Ceiling:1900 feet AGL
Clouds: broken clouds at 1900 feet AGL
QC Flag:automated observation with no human augmentation
Text:PADU 160656Z AUTO 20010KT 10SM SCT017 09/07 A3022 RMK AO2 SLP237 T00940067
Temperature: 9.4°C ( 49°F)
Dewpoint: 6.7°C ( 44°F) [RH = 83%]
Pressure (altimeter):30.22 inches Hg (1023.5 mb) [Sea level pressure: 1023.7 mb]
Winds:from the SSW (200 degrees) at 12 MPH (10 knots; 5.1 m/s)
Visibility:10 or more sm (16+ km)
Ceiling:at least 12,000 feet AGL
Clouds: scattered clouds at 1700 feet AGL
QC Flag:automated observation with no human augmentation
Text:PADU 160631Z AUTO 21008KT 10SM SCT025 09/07 A3021 RMK AO2
Temperature: 9.0°C ( 48°F)
Dewpoint: 7.0°C ( 45°F) [RH = 87%]
Pressure (altimeter):30.21 inches Hg (1023.1 mb)
Winds:from the SSW (210 degrees) at 9 MPH (8 knots; 4.1 m/s)
Visibility:10 or more sm (16+ km)
Ceiling:at least 12,000 feet AGL
Clouds: scattered clouds at 2500 feet AGL
QC Flag:automated observation with no human augmentation
Text:PADU 160556Z AUTO 20007KT 10SM OVC025 10/07 A3021 RMK AO2 SLP234 T01000067 10106 20089 51009
Temperature: 10.0°C ( 50°F)
Dewpoint: 6.7°C ( 44°F) [RH = 80%]
Pressure (altimeter):30.21 inches Hg (1023.1 mb) [Sea level pressure: 1023.4 mb]
Winds:from the SSW (200 degrees) at 8 MPH (7 knots; 3.6 m/s)
Visibility:10 or more sm (16+ km)
Ceiling:2500 feet AGL
Clouds: overcast cloud deck at 2500 feet AGL
QC Flag:automated observation with no human augmentation
Text:PADU 160456Z AUTO 08004KT 10SM OVC024 10/07 A3020 RMK AO2 SLP231 T01000067
Temperature: 10.0°C ( 50°F)
Dewpoint: 6.7°C ( 44°F) [RH = 80%]
Pressure (altimeter):30.20 inches Hg (1022.8 mb) [Sea level pressure: 1023.1 mb]
Winds:from the E (80 degrees) at 5 MPH (4 knots; 2.1 m/s)
Visibility:10 or more sm (16+ km)
Ceiling:2400 feet AGL
Clouds: overcast cloud deck at 2400 feet AGL
QC Flag:automated observation with no human augmentation
Text:PADU 160356Z 09004KT 10SM BKN018 BKN026 10/07 A3020 RMK AO2 SLP230 T01000067
Temperature: 10.0°C ( 50°F)
Dewpoint: 6.7°C ( 44°F) [RH = 80%]
Pressure (altimeter):30.20 inches Hg (1022.8 mb) [Sea level pressure: 1023.0 mb]
Winds:from the E (90 degrees) at 5 MPH (4 knots; 2.1 m/s)
Visibility:10 or more sm (16+ km)
Ceiling:1800 feet AGL
Clouds: broken clouds at 1800 feet AGL, broken clouds at 2600 feet AGL

TAF for:PADU (Dutch Harbor/Madsen, AK, US) issued at 0538 UTC 16 Jul 2018
Text:PADU 160538Z 1606/1706 24006KT P6SM FEW003 BKN010 OVC025
Forecast period:0600 to 1200 UTC 16 July 2018
Forecast type:FROM: standard forecast or significant change
Winds:from the WSW (240 degrees) at 7 MPH (6 knots; 3.1 m/s)
Visibility:6 or more sm (10+ km)
Ceiling:1000 feet AGL
Clouds: few clouds at 300 feet AGL, broken clouds at 1000 feet AGL, overcast cloud deck at 2500 feet AGL
Text:TEMPO 1606/1608 08011KT SCT015 OVC025
Forecast period:0600 to 0800 UTC 16 July 2018
Forecast type:TEMPORARY: The following changes expected for less than half the time period
Winds:from the E (80 degrees) at 13 MPH (11 knots; 5.7 m/s)
Ceiling:2500 feet AGL
Clouds: scattered clouds at 1500 feet AGL, overcast cloud deck at 2500 feet AGL
Text:FM161200 22016KT 4SM BR OVC007
Forecast period:1200 UTC 16 July 2018 to 0600 UTC 17 July 2018
Forecast type:FROM: standard forecast or significant change
Winds:from the SW (220 degrees) at 18 MPH (16 knots; 8.2 m/s)
Visibility: 4 sm ( 6 km)
Ceiling:700 feet AGL
Clouds: overcast cloud deck at 700 feet AGL
Weather:BR (mist)